createdAt,value
2022-10-22T00:00:28.408Z,100624.23
2022-10-22T00:02:58.071Z,100621.42
2022-10-22T00:05:28.232Z,100618.60
2022-10-22T00:07:57.761Z,100613.84
2022-10-22T00:10:28.054Z,100619.48
2022-10-22T00:12:57.833Z,100621.95
2022-10-22T00:15:27.606Z,100612.95
2022-10-22T00:17:57.409Z,100617.16
2022-10-22T00:20:27.184Z,100621.41
2022-10-22T00:22:56.985Z,100621.76
2022-10-22T00:25:27.107Z,100624.76
2022-10-22T00:27:56.622Z,100617.16
2022-10-22T00:30:26.367Z,100608.90
2022-10-22T00:32:58.800Z,100608.20
2022-10-22T00:35:26.047Z,100605.38
2022-10-22T00:37:55.942Z,100594.80
2022-10-22T00:40:26.105Z,100588.96
2022-10-22T00:42:55.699Z,100586.67
2022-10-22T00:45:28.023Z,100591.26
2022-10-22T00:48:12.054Z,100599.02
2022-10-22T00:50:46.325Z,100599.73
2022-10-22T00:53:32.868Z,100610.48
2022-10-22T00:56:03.884Z,100614.91
2022-10-22T00:58:41.890Z,100619.52
2022-10-22T01:01:20.123Z,100618.48
2022-10-22T01:03:50.115Z,100622.36
2022-10-22T01:06:37.908Z,100628.00
2022-10-22T01:09:22.358Z,100624.65
2022-10-22T01:12:31.170Z,100623.23
2022-10-22T01:15:11.218Z,100621.30
2022-10-22T01:18:06.563Z,100626.95
2022-10-22T01:21:17.729Z,100626.94
2022-10-22T01:24:35.744Z,100606.14
2022-10-22T01:27:42.459Z,100591.48
2022-10-22T01:30:15.932Z,100586.17
2022-10-22T01:32:54.683Z,100585.63
2022-10-22T01:35:34.726Z,100584.73
2022-10-22T01:38:11.218Z,100585.05
2022-10-22T01:40:43.334Z,100589.98
2022-10-22T01:43:13.253Z,100590.88
2022-10-22T01:45:56.757Z,100589.42
2022-10-22T01:48:50.756Z,100593.30
2022-10-22T01:51:52.185Z,100602.08
2022-10-22T01:54:39.579Z,100609.48
2022-10-22T01:57:31.801Z,100608.77
2022-10-22T02:00:17.217Z,100607.73
2022-10-22T02:03:01.508Z,100607.89
2022-10-22T02:05:52.164Z,100608.59
2022-10-22T02:08:31.790Z,100607.86
2022-10-22T02:11:03.714Z,100605.75
2022-10-22T02:13:45.010Z,100611.91
2022-10-22T02:16:26.515Z,100623.20
2022-10-22T02:19:01.953Z,100624.60
2022-10-22T02:21:32.044Z,100619.17
2022-10-22T02:24:01.858Z,100606.65
2022-10-22T02:27:04.829Z,100602.94
2022-10-22T02:29:52.154Z,100599.92
2022-10-22T02:32:28.403Z,100602.37
2022-10-22T02:35:02.028Z,100604.65
2022-10-22T02:37:32.857Z,100606.42
2022-10-22T02:40:03.802Z,100601.66
2022-10-22T02:42:37.241Z,100602.20
2022-10-22T02:45:07.485Z,100601.65
2022-10-22T02:47:37.290Z,100604.11
2022-10-22T02:50:10.333Z,100608.30
2022-10-22T02:52:40.734Z,100612.52
2022-10-22T02:55:11.340Z,100618.16
2022-10-22T02:57:41.880Z,100616.41
2022-10-22T03:00:13.115Z,100608.49
2022-10-22T03:02:42.910Z,100602.48
2022-10-22T03:05:13.747Z,100599.32
2022-10-22T03:07:43.967Z,100596.84
2022-10-22T03:10:14.108Z,100604.94
2022-10-22T03:12:43.995Z,100601.58
2022-10-22T03:15:13.961Z,100599.47
2022-10-22T03:17:44.331Z,100597.52
2022-10-22T03:20:14.129Z,100590.47
2022-10-22T03:22:44.974Z,100591.02
2022-10-22T03:25:22.600Z,100593.98
2022-10-22T03:27:56.032Z,100593.45
2022-10-22T03:30:24.019Z,100597.67
2022-10-22T03:32:53.925Z,100600.48
2022-10-22T03:35:24.393Z,100602.25
2022-10-22T03:37:55.144Z,100603.66
2022-10-22T03:40:24.201Z,100603.84
2022-10-22T03:42:53.983Z,100598.55
2022-10-22T03:45:23.803Z,100597.14
2022-10-22T03:47:53.571Z,100598.38
2022-10-22T03:50:23.515Z,100599.09
2022-10-22T03:52:53.743Z,100602.25
2022-10-22T03:55:24.379Z,100606.48
2022-10-22T03:57:54.012Z,100607.52
2022-10-22T04:00:23.762Z,100613.52
2022-10-22T04:02:53.474Z,100616.34
2022-10-22T04:05:23.495Z,100620.38
2022-10-22T04:07:53.251Z,100621.79
2022-10-22T04:10:23.060Z,100632.02
2022-10-22T04:12:53.127Z,100638.89
2022-10-22T04:15:22.645Z,100644.88
2022-10-22T04:17:52.536Z,100648.25
2022-10-22T04:20:22.587Z,100648.75
2022-10-22T04:22:52.284Z,100645.41
2022-10-22T04:25:22.022Z,100646.46
2022-10-22T04:27:51.739Z,100645.25
2022-10-22T04:30:21.515Z,100639.23
2022-10-22T04:32:51.260Z,100632.54
2022-10-22T04:35:21.021Z,100631.14
2022-10-22T04:37:51.695Z,100630.23
2022-10-22T04:40:21.839Z,100630.91
2022-10-22T04:42:51.549Z,100633.73
2022-10-22T04:45:21.275Z,100634.95
2022-10-22T04:47:51.129Z,100633.85
2022-10-22T04:50:21.199Z,100636.14
2022-10-22T04:52:50.881Z,100636.81
2022-10-22T04:55:20.691Z,100637.85
2022-10-22T04:57:50.691Z,100637.15
2022-10-22T05:00:20.621Z,100630.23
2022-10-22T05:02:51.336Z,100630.77
2022-10-22T05:05:21.048Z,100630.23
2022-10-22T05:07:53.857Z,100635.16
2022-10-22T05:10:21.519Z,100638.68
2022-10-22T05:12:51.332Z,100641.29
2022-10-22T05:15:21.065Z,100647.44
2022-10-22T05:17:50.798Z,100648.31
2022-10-22T05:20:20.626Z,100649.02
2022-10-22T05:22:50.289Z,100645.84
2022-10-22T05:25:20.111Z,100645.50
2022-10-22T05:27:55.226Z,100646.88
2022-10-22T05:30:27.103Z,100645.46
2022-10-22T05:32:56.861Z,100648.79
2022-10-22T05:35:24.434Z,100647.55
2022-10-22T05:37:51.760Z,100643.70
2022-10-22T05:40:30.494Z,100646.50
2022-10-22T05:43:00.996Z,100648.77
2022-10-22T05:45:30.680Z,100654.02
2022-10-22T05:48:00.409Z,100654.54
2022-10-22T05:50:30.352Z,100657.00
2022-10-22T05:53:00.013Z,100661.22
2022-10-22T05:55:30.008Z,100666.48
2022-10-22T05:57:59.705Z,100666.32
2022-10-22T06:00:26.473Z,100668.08
2022-10-22T06:02:53.928Z,100668.42
2022-10-22T06:05:23.611Z,100665.97
2022-10-22T06:07:54.431Z,100668.08
2022-10-22T06:10:24.238Z,100665.45
2022-10-22T06:12:54.049Z,100666.67
2022-10-22T06:15:23.805Z,100667.73
2022-10-22T06:17:53.462Z,100672.66
2022-10-22T06:20:23.251Z,100674.24
2022-10-22T06:22:53.027Z,100675.83
2022-10-22T06:25:22.735Z,100677.23
2022-10-22T06:27:52.513Z,100679.70
2022-10-22T06:30:22.265Z,100689.73
2022-10-22T06:32:51.975Z,100700.65
2022-10-22T06:35:21.704Z,100711.41
2022-10-22T06:37:51.410Z,100711.79
2022-10-22T06:40:21.636Z,100720.24
2022-10-22T06:42:51.294Z,100722.19
2022-10-22T06:45:21.027Z,100716.59
2022-10-22T06:47:51.063Z,100718.91
2022-10-22T06:50:20.954Z,100713.98
2022-10-22T06:52:50.699Z,100716.09
2022-10-22T06:55:20.406Z,100716.10
2022-10-22T06:57:50.071Z,100721.08
2022-10-22T07:00:19.884Z,100718.81
2022-10-22T07:02:57.611Z,100712.81
2022-10-22T07:05:28.956Z,100715.86
2022-10-22T07:07:58.677Z,100712.16
2022-10-22T07:10:30.016Z,100712.73
2022-10-22T07:13:00.519Z,100716.79
2022-10-22T07:15:30.294Z,100717.53
2022-10-22T07:18:00.229Z,100721.05
2022-10-22T07:20:30.194Z,100723.73
2022-10-22T07:22:59.942Z,100725.30
2022-10-22T07:25:29.668Z,100727.46
2022-10-22T07:27:59.343Z,100734.58
2022-10-22T07:30:29.161Z,100738.68
2022-10-22T07:32:56.183Z,100737.30
2022-10-22T07:35:26.003Z,100739.45
2022-10-22T07:37:56.359Z,100740.23
2022-10-22T07:40:26.487Z,100745.73
2022-10-22T07:42:56.530Z,100750.52
2022-10-22T07:45:26.290Z,100756.73
2022-10-22T07:47:56.017Z,100766.24
2022-10-22T07:50:25.959Z,100770.27
2022-10-22T07:52:57.546Z,100775.02
2022-10-22T07:55:26.233Z,100777.52
2022-10-22T07:57:56.042Z,100777.38
2022-10-22T08:00:25.822Z,100776.15
2022-10-22T08:02:55.513Z,100777.04
2022-10-22T08:05:25.476Z,100775.47
2022-10-22T08:07:55.291Z,100780.05
2022-10-22T08:10:25.097Z,100779.19
2022-10-22T08:12:54.870Z,100781.35
2022-10-22T08:15:26.485Z,100784.73
2022-10-22T08:17:56.191Z,100785.08
2022-10-22T08:20:26.074Z,100786.14
2022-10-22T08:22:55.875Z,100792.15
2022-10-22T08:25:27.530Z,100796.61
2022-10-22T08:27:56.106Z,100793.61
2022-10-22T08:30:27.827Z,100797.68
2022-10-22T08:32:57.557Z,100799.08
2022-10-22T08:35:27.299Z,100804.21
2022-10-22T08:37:57.292Z,100810.27
2022-10-22T08:40:40.737Z,100815.08
2022-10-22T08:43:19.419Z,100821.79
2022-10-22T08:46:04.633Z,100818.11
2022-10-22T08:48:55.382Z,100817.58
2022-10-22T08:51:31.115Z,100815.50
2022-10-22T08:54:15.365Z,100811.48
2022-10-22T08:56:57.072Z,100816.84
2022-10-22T08:59:44.525Z,100815.63
2022-10-22T09:02:36.054Z,100817.91
2022-10-22T09:05:34.962Z,100820.66
2022-10-22T09:08:10.809Z,100818.94
2022-10-22T09:10:48.991Z,100819.30
2022-10-22T09:13:22.805Z,100820.73
2022-10-22T09:16:01.619Z,100822.52
2022-10-22T09:19:03.247Z,100828.03
2022-10-22T09:22:08.205Z,100831.77
2022-10-22T09:24:48.078Z,100833.20
2022-10-22T09:27:23.936Z,100836.38
2022-10-22T09:29:53.694Z,100834.96
2022-10-22T09:32:25.486Z,100835.84
2022-10-22T09:34:58.644Z,100839.74
2022-10-22T09:37:30.177Z,100844.16
2022-10-22T09:40:05.626Z,100845.77
2022-10-22T09:42:35.375Z,100848.23
2022-10-22T09:45:06.226Z,100850.52
2022-10-22T09:48:00.549Z,100854.95
2022-10-22T09:50:41.593Z,100855.48
2022-10-22T09:53:35.748Z,100854.07
2022-10-22T09:56:36.220Z,100854.08
2022-10-22T09:59:13.945Z,100851.44
2022-10-22T10:01:47.283Z,100851.78
2022-10-22T10:04:17.563Z,100849.12
2022-10-22T10:06:56.249Z,100851.05
2022-10-22T10:09:29.478Z,100854.05
2022-10-22T10:12:36.960Z,100857.75
2022-10-22T10:15:36.084Z,100860.93
2022-10-22T10:18:34.330Z,100865.33
2022-10-22T10:22:02.576Z,100865.64
2022-10-22T10:25:18.985Z,100869.73
2022-10-22T10:28:32.800Z,100865.35
2022-10-22T10:31:34.362Z,100866.22
2022-10-22T10:34:32.764Z,100863.05
2022-10-22T10:37:26.428Z,100859.87
2022-10-22T10:40:20.564Z,100857.36
2022-10-22T10:43:11.235Z,100858.98
2022-10-22T10:49:03.918Z,100860.70
2022-10-22T10:52:29.953Z,100862.11
2022-10-22T10:55:41.068Z,100865.14
2022-10-22T10:58:48.048Z,100865.83
2022-10-22T11:02:00.869Z,100861.99
2022-10-22T11:05:13.401Z,100864.71
2022-10-22T11:07:56.160Z,100865.45
2022-10-22T11:10:34.864Z,100867.90
2022-10-22T11:13:41.256Z,100868.47
2022-10-22T11:16:31.125Z,100869.58
2022-10-22T11:19:23.201Z,100863.25
2022-10-22T11:22:26.467Z,100867.20
2022-10-22T11:25:14.171Z,100861.25
2022-10-22T11:28:12.484Z,100859.09
2022-10-22T11:30:48.748Z,100859.30
2022-10-22T11:33:25.087Z,100856.70
2022-10-22T11:35:59.320Z,100856.38
2022-10-22T11:38:32.815Z,100860.23
2022-10-22T11:41:18.058Z,100860.52
2022-10-22T11:44:07.572Z,100866.02
2022-10-22T11:46:59.380Z,100872.11
2022-10-22T11:50:20.289Z,100868.11
2022-10-22T11:53:04.008Z,100865.86
2022-10-22T11:55:45.464Z,100862.02
2022-10-22T11:58:30.683Z,100861.61
2022-10-22T12:01:09.272Z,100861.05
2022-10-22T12:03:49.329Z,100864.27
2022-10-22T12:06:26.812Z,100860.48
2022-10-22T12:09:04.867Z,100863.61
2022-10-22T12:11:41.854Z,100863.88
2022-10-22T12:14:31.077Z,100870.61
2022-10-22T12:17:13.085Z,100863.91
2022-10-22T12:19:58.525Z,100866.22
2022-10-22T12:22:37.523Z,100868.14
2022-10-22T12:25:21.473Z,100866.27
2022-10-22T12:27:57.182Z,100864.63
2022-10-22T12:30:32.323Z,100861.75
2022-10-22T12:33:18.343Z,100864.40
2022-10-22T12:35:52.993Z,100863.45
2022-10-22T12:38:27.384Z,100866.05
2022-10-22T12:40:57.372Z,100870.45
2022-10-22T12:43:30.485Z,100867.92
2022-10-22T12:46:00.887Z,100866.84
2022-10-22T12:48:38.956Z,100868.75
2022-10-22T12:51:14.251Z,100861.40
2022-10-22T12:53:50.786Z,100859.80
2022-10-22T12:56:28.824Z,100863.16
2022-10-22T12:59:22.973Z,100867.02
2022-10-22T13:01:55.266Z,100865.04
2022-10-22T13:04:37.864Z,100866.97
2022-10-22T13:07:16.941Z,100867.51
2022-10-22T13:09:55.469Z,100870.77
2022-10-22T13:12:37.175Z,100875.65
2022-10-22T13:15:30.233Z,100876.50
2022-10-22T13:18:22.427Z,100872.54
2022-10-22T13:21:03.104Z,100873.70
2022-10-22T13:23:34.898Z,100875.27
2022-10-22T13:26:16.962Z,100874.16
2022-10-22T13:28:54.210Z,100876.02
2022-10-22T13:31:28.178Z,100879.56
2022-10-22T13:34:09.836Z,100878.39
2022-10-22T13:36:41.809Z,100881.58
2022-10-22T13:39:29.978Z,100882.35
2022-10-22T13:41:59.851Z,100880.34
2022-10-22T13:44:29.728Z,100879.23
2022-10-22T13:46:59.445Z,100880.55
2022-10-22T13:49:29.269Z,100883.96
2022-10-22T13:52:01.009Z,100885.19
2022-10-22T13:54:30.915Z,100888.51
2022-10-22T13:57:01.109Z,100889.67
2022-10-22T13:59:30.678Z,100894.41
2022-10-22T14:01:57.743Z,100894.27
2022-10-22T14:04:26.602Z,100897.16
2022-10-22T14:06:58.759Z,100900.66
2022-10-22T14:09:29.506Z,100901.35
2022-10-22T14:11:56.668Z,100896.90
2022-10-22T14:14:26.340Z,100897.48
2022-10-22T14:16:56.390Z,100893.89
2022-10-22T14:19:26.285Z,100899.85
2022-10-22T14:21:56.084Z,100899.28
2022-10-22T14:24:25.913Z,100902.18
2022-10-22T14:26:56.017Z,100901.02
2022-10-22T14:29:25.740Z,100903.01
2022-10-22T14:31:56.506Z,100905.00
2022-10-22T14:34:25.891Z,100902.05
2022-10-22T14:36:55.639Z,100905.63
2022-10-22T14:39:25.355Z,100908.85
2022-10-22T14:41:55.066Z,100911.56
2022-10-22T14:44:26.362Z,100913.19
2022-10-22T14:46:56.487Z,100917.55
2022-10-22T14:49:25.319Z,100920.26
2022-10-22T14:51:55.094Z,100914.73
2022-10-22T14:54:25.105Z,100919.45
2022-10-22T14:56:54.929Z,100917.98
2022-10-22T14:59:24.997Z,100922.26
2022-10-22T15:01:54.860Z,100921.93
2022-10-22T15:04:27.006Z,100920.20
2022-10-22T15:06:56.520Z,100920.55
2022-10-22T15:09:26.357Z,100925.94
2022-10-22T15:11:56.474Z,100924.61
2022-10-22T15:14:26.190Z,100928.06
2022-10-22T15:16:56.090Z,100929.54
2022-10-22T15:19:26.291Z,100928.85
2022-10-22T15:21:56.179Z,100929.39
2022-10-22T15:24:26.078Z,100932.07
2022-10-22T15:26:55.950Z,100934.73
2022-10-22T15:29:25.723Z,100935.11
2022-10-22T15:32:03.603Z,100940.06
2022-10-22T15:34:36.052Z,100942.55
2022-10-22T15:37:09.503Z,100944.15
2022-10-22T15:39:41.003Z,100942.54
2022-10-22T15:42:17.491Z,100943.93
2022-10-22T15:44:47.255Z,100948.52
2022-10-22T15:47:17.014Z,100951.87
2022-10-22T15:49:47.814Z,100952.93
2022-10-22T15:52:17.846Z,100951.48
2022-10-22T15:54:47.928Z,100954.14
2022-10-22T15:57:17.917Z,100953.25
2022-10-22T15:59:50.043Z,100953.59
2022-10-22T16:02:19.825Z,100959.05
2022-10-22T16:04:49.765Z,100958.14
2022-10-22T16:07:21.194Z,100957.58
2022-10-22T16:09:59.917Z,100955.63
2022-10-22T16:12:29.750Z,100957.54
2022-10-22T16:14:59.496Z,100963.86
2022-10-22T16:17:29.569Z,100963.14
2022-10-22T16:19:59.317Z,100964.70
2022-10-22T16:22:29.444Z,100970.14
2022-10-22T16:24:59.099Z,100971.36
2022-10-22T16:27:28.946Z,100978.02
2022-10-22T16:29:58.925Z,100978.71
2022-10-22T16:32:28.731Z,100980.79
2022-10-22T16:34:59.157Z,100980.43
2022-10-22T16:37:28.969Z,100979.48
2022-10-22T16:39:59.729Z,100983.12
2022-10-22T16:42:30.748Z,100980.98
2022-10-22T16:45:00.687Z,100987.27
2022-10-22T16:47:30.439Z,100986.92
2022-10-22T16:50:01.096Z,100995.70
2022-10-22T16:52:30.795Z,100997.27
2022-10-22T16:55:01.241Z,101000.91
2022-10-22T16:57:32.168Z,101008.45
2022-10-22T17:00:04.893Z,101013.39
2022-10-22T17:02:37.403Z,101014.08
2022-10-22T17:05:07.866Z,101019.87
2022-10-22T17:07:37.556Z,101022.67
2022-10-22T17:10:09.209Z,101023.33
2022-10-22T17:12:39.102Z,101026.09
2022-10-22T17:15:09.248Z,101032.41
2022-10-22T17:17:39.281Z,101036.39
2022-10-22T17:20:10.830Z,101040.02
2022-10-22T17:22:41.208Z,101045.29
2022-10-22T17:25:20.034Z,101045.64
2022-10-22T17:27:50.838Z,101041.82
2022-10-22T17:30:24.810Z,101044.51
2022-10-22T17:32:56.991Z,101048.86
2022-10-22T17:38:01.673Z,101054.35
2022-10-22T17:40:31.544Z,101058.90
2022-10-22T17:43:01.303Z,101059.00
2022-10-22T17:45:31.049Z,101057.61
2022-10-22T17:48:01.501Z,101061.65
2022-10-22T17:50:31.493Z,101061.23
2022-10-22T17:53:01.211Z,101065.77
2022-10-22T17:55:31.047Z,101064.48
2022-10-22T17:58:01.931Z,101060.64
2022-10-22T18:00:33.382Z,101059.27
2022-10-22T18:03:03.202Z,101060.83
2022-10-22T18:05:33.816Z,101059.59
2022-10-22T18:08:07.016Z,101057.88
2022-10-22T18:10:42.196Z,101059.62
2022-10-22T18:13:12.220Z,101068.16
2022-10-22T18:15:41.912Z,101076.59
2022-10-22T18:18:11.948Z,101073.27
2022-10-22T18:20:41.665Z,101073.97
2022-10-22T18:23:13.492Z,101074.90
2022-10-22T18:25:43.346Z,101072.48
2022-10-22T18:28:15.142Z,101068.77
2022-10-22T18:30:47.309Z,101071.93
2022-10-22T18:33:19.450Z,101072.58
2022-10-22T18:35:49.137Z,101072.94
2022-10-22T18:38:22.156Z,101072.52
2022-10-22T18:40:51.869Z,101066.38
2022-10-22T18:43:21.619Z,101069.70
2022-10-22T18:45:51.302Z,101071.80
2022-10-22T18:48:23.011Z,101078.15
2022-10-22T18:51:07.565Z,101079.88
2022-10-22T18:53:38.087Z,101078.79
2022-10-22T18:56:12.334Z,101080.13
2022-10-22T18:58:46.500Z,101075.90
2022-10-22T19:01:23.262Z,101078.01
2022-10-22T19:03:53.458Z,101078.48
2022-10-22T19:06:35.732Z,101081.84
2022-10-22T19:09:07.790Z,101082.46
2022-10-22T19:11:37.836Z,101087.92
2022-10-22T19:14:07.645Z,101088.61
2022-10-22T19:16:38.673Z,101089.98
2022-10-22T19:19:08.558Z,101089.44
2022-10-22T19:21:38.522Z,101092.06
2022-10-22T19:24:08.391Z,101100.48
2022-10-22T19:26:38.827Z,101100.44
2022-10-22T19:29:11.015Z,101099.31
2022-10-22T19:31:41.728Z,101101.20
2022-10-22T19:34:11.737Z,101107.14
2022-10-22T19:36:41.566Z,101107.90
2022-10-22T19:39:15.204Z,101106.13
2022-10-22T19:41:45.279Z,101110.58
2022-10-22T19:44:15.025Z,101111.95
2022-10-22T19:46:44.705Z,101114.58
2022-10-22T19:49:17.612Z,101118.09
2022-10-22T19:51:50.322Z,101120.68
2022-10-22T19:54:20.612Z,101124.90
2022-10-22T19:56:50.599Z,101131.04
2022-10-22T19:59:22.723Z,101135.97
2022-10-22T20:01:52.853Z,101135.65
2022-10-22T20:04:25.820Z,101142.48
2022-10-22T20:06:55.562Z,101140.36
2022-10-22T20:09:25.515Z,101146.23
2022-10-22T20:11:55.362Z,101145.26
2022-10-22T20:14:25.303Z,101152.16
2022-10-22T20:16:55.349Z,101156.09
2022-10-22T20:19:28.801Z,101159.82
2022-10-22T20:24:29.315Z,101161.61
2022-10-22T20:26:59.047Z,101162.65
2022-10-22T20:29:28.798Z,101159.62
2022-10-22T20:31:59.389Z,101158.77
2022-10-22T20:34:29.027Z,101160.55
2022-10-22T20:36:58.679Z,101162.70
2022-10-22T20:39:28.443Z,101165.50
2022-10-22T20:41:58.103Z,101167.98
2022-10-22T20:44:27.813Z,101171.18
2022-10-22T20:49:33.014Z,101176.49
2022-10-22T20:52:02.732Z,101182.68
2022-10-22T20:54:33.054Z,101182.17
2022-10-22T20:57:04.295Z,101181.35
2022-10-22T20:59:35.185Z,101180.84
2022-10-22T21:02:06.200Z,101183.55
2022-10-22T21:04:36.222Z,101189.70
2022-10-22T21:07:06.014Z,101189.77
2022-10-22T21:09:36.390Z,101188.60
2022-10-22T21:12:10.370Z,101184.73
2022-10-22T21:14:40.279Z,101190.46
2022-10-22T21:17:10.114Z,101191.01
2022-10-22T21:19:39.807Z,101192.78
2022-10-22T21:22:09.447Z,101199.90
2022-10-22T21:24:39.165Z,101202.63
2022-10-22T21:27:09.827Z,101203.27
2022-10-22T21:29:39.499Z,101202.63
2022-10-22T21:32:09.358Z,101201.11
2022-10-22T21:34:39.204Z,101207.67
2022-10-22T21:37:09.010Z,101209.09
2022-10-22T21:39:41.950Z,101212.10
2022-10-22T21:42:19.154Z,101214.14
2022-10-22T21:44:48.636Z,101216.98
2022-10-22T21:47:18.523Z,101215.79
2022-10-22T21:49:48.269Z,101221.59
2022-10-22T21:52:18.071Z,101216.48
2022-10-22T21:54:47.807Z,101218.97
2022-10-22T21:57:17.658Z,101220.38
2022-10-22T21:59:47.712Z,101211.59
2022-10-22T22:02:17.156Z,101212.77
2022-10-22T22:04:46.958Z,101216.76
2022-10-22T22:07:16.819Z,101214.02
2022-10-22T22:09:46.553Z,101216.45
2022-10-22T22:12:17.379Z,101213.86
2022-10-22T22:14:47.485Z,101211.09
2022-10-22T22:17:18.510Z,101209.59
2022-10-22T22:19:48.160Z,101215.91
2022-10-22T22:22:17.951Z,101214.39
2022-10-22T22:24:47.769Z,101223.77
2022-10-22T22:27:17.610Z,101219.26
2022-10-22T22:29:47.358Z,101222.84
2022-10-22T22:32:17.099Z,101221.02
2022-10-22T22:34:46.824Z,101221.63
2022-10-22T22:37:16.556Z,101219.36
2022-10-22T22:39:46.260Z,101221.71
2022-10-22T22:42:16.245Z,101217.33
2022-10-22T22:44:45.903Z,101214.75
2022-10-22T22:47:15.573Z,101218.73
2022-10-22T22:49:45.232Z,101218.67
2022-10-22T22:52:14.950Z,101217.80
2022-10-22T22:54:44.686Z,101217.73
2022-10-22T22:57:15.530Z,101215.05
2022-10-22T22:59:45.294Z,101218.81
2022-10-22T23:02:15.076Z,101215.58
2022-10-22T23:04:44.806Z,101217.29
2022-10-22T23:07:14.582Z,101216.86
2022-10-22T23:09:44.479Z,101216.25
2022-10-22T23:12:17.898Z,101214.02
2022-10-22T23:14:51.329Z,101211.85
2022-10-22T23:17:21.085Z,101216.36
2022-10-22T23:19:50.943Z,101218.61
2022-10-22T23:22:20.685Z,101222.04
2022-10-22T23:24:50.391Z,101224.49
2022-10-22T23:27:20.164Z,101224.90
2022-10-22T23:29:49.906Z,101226.52
2022-10-22T23:32:19.641Z,101225.94
2022-10-22T23:34:49.767Z,101228.15
2022-10-22T23:37:19.437Z,101233.17
2022-10-22T23:39:49.170Z,101232.42
2022-10-22T23:42:19.113Z,101230.55
2022-10-22T23:44:48.851Z,101225.82
2022-10-22T23:47:18.618Z,101230.48
2022-10-22T23:49:48.393Z,101230.27
2022-10-22T23:52:18.137Z,101229.72
2022-10-22T23:54:48.823Z,101228.64
2022-10-22T23:57:18.542Z,101232.48
2022-10-22T23:59:48.212Z,101233.18
